Terminal Aerodrome Forecast
Issued by NWS

Home | Current Version | Previous Version | Text Only | Print | Product List | Glossary On
Versions: 1 2 3 4 5 6 7 8 9 10 11 12 13 14
032
FTAK31 PAJN 261135
TAFAWG
TAF
PAWG 261135Z 2612/2712 00000KT P6SM SKC
     FM261800 VRB04KT P6SM BKN200
     FM262200 32006KT P6SM FEW030 BKN100
     FM270600 VRB05KT P6SM SCT100
      AMD LTD TO CLD VIS AND WIND 2612/2615=

USA.gov is the U.S. government's official web portal to all federal, state and local government web resources and services.